sensor_id;sensor_type;location;lat;lon;timestamp;P1;durP1;ratioP1;P2;durP2;ratioP2
48945;SDS011;34999;50.940;3.998;2023-07-08T00:00:19;7.57;;;5.10;;
48945;SDS011;34999;50.940;3.998;2023-07-08T00:02:50;7.37;;;5.60;;
48945;SDS011;34999;50.940;3.998;2023-07-08T00:05:21;8.10;;;5.80;;
48945;SDS011;34999;50.940;3.998;2023-07-08T00:07:52;7.93;;;5.30;;
48945;SDS011;34999;50.940;3.998;2023-07-08T00:10:21;5.97;;;5.37;;
48945;SDS011;34999;50.940;3.998;2023-07-08T00:12:51;7.63;;;5.67;;
48945;SDS011;34999;50.940;3.998;2023-07-08T00:15:21;8.13;;;5.83;;
48945;SDS011;34999;50.940;3.998;2023-07-08T00:17:53;6.33;;;5.20;;
48945;SDS011;34999;50.940;3.998;2023-07-08T00:20:22;6.07;;;5.13;;
48945;SDS011;34999;50.940;3.998;2023-07-08T00:23:05;5.60;;;5.10;;
48945;SDS011;34999;50.940;3.998;2023-07-08T00:25:36;5.77;;;5.13;;
48945;SDS011;34999;50.940;3.998;2023-07-08T00:28:04;7.23;;;5.50;;
48945;SDS011;34999;50.940;3.998;2023-07-08T00:30:38;5.50;;;5.00;;
48945;SDS011;34999;50.940;3.998;2023-07-08T00:33:08;7.00;;;5.30;;
48945;SDS011;34999;50.940;3.998;2023-07-08T00:35:37;5.43;;;4.97;;
48945;SDS011;34999;50.940;3.998;2023-07-08T00:38:10;7.50;;;5.43;;
48945;SDS011;34999;50.940;3.998;2023-07-08T00:40:49;6.50;;;5.67;;
48945;SDS011;34999;50.940;3.998;2023-07-08T00:43:19;6.40;;;5.70;;
48945;SDS011;34999;50.940;3.998;2023-07-08T00:45:51;5.67;;;4.87;;
48945;SDS011;34999;50.940;3.998;2023-07-08T00:48:30;5.83;;;5.27;;
48945;SDS011;34999;50.940;3.998;2023-07-08T00:51:01;6.67;;;4.97;;
48945;SDS011;34999;50.940;3.998;2023-07-08T00:53:30;6.90;;;5.70;;
48945;SDS011;34999;50.940;3.998;2023-07-08T00:56:00;7.57;;;5.93;;
48945;SDS011;34999;50.940;3.998;2023-07-08T00:58:34;8.47;;;5.47;;
48945;SDS011;34999;50.940;3.998;2023-07-08T01:01:05;8.23;;;5.83;;
48945;SDS011;34999;50.940;3.998;2023-07-08T01:03:37;5.93;;;5.30;;
48945;SDS011;34999;50.940;3.998;2023-07-08T01:06:16;11.67;;;5.47;;
48945;SDS011;34999;50.940;3.998;2023-07-08T01:08:45;5.97;;;5.20;;
48945;SDS011;34999;50.940;3.998;2023-07-08T01:11:16;6.30;;;5.70;;
48945;SDS011;34999;50.940;3.998;2023-07-08T01:13:48;10.27;;;5.70;;
48945;SDS011;34999;50.940;3.998;2023-07-08T01:16:18;8.27;;;5.87;;
48945;SDS011;34999;50.940;3.998;2023-07-08T01:18:47;9.13;;;5.40;;
48945;SDS011;34999;50.940;3.998;2023-07-08T01:21:29;5.50;;;5.00;;
48945;SDS011;34999;50.940;3.998;2023-07-08T01:24:01;5.83;;;5.23;;
48945;SDS011;34999;50.940;3.998;2023-07-08T01:26:33;6.97;;;5.67;;
48945;SDS011;34999;50.940;3.998;2023-07-08T01:29:03;6.77;;;5.80;;
48945;SDS011;34999;50.940;3.998;2023-07-08T01:31:31;7.23;;;5.43;;
48945;SDS011;34999;50.940;3.998;2023-07-08T01:34:00;11.17;;;5.77;;
48945;SDS011;34999;50.940;3.998;2023-07-08T01:36:30;6.33;;;5.70;;
48945;SDS011;34999;50.940;3.998;2023-07-08T01:39:04;8.27;;;6.07;;
48945;SDS011;34999;50.940;3.998;2023-07-08T01:41:32;6.10;;;5.47;;
48945;SDS011;34999;50.940;3.998;2023-07-08T01:44:00;10.30;;;5.97;;
48945;SDS011;34999;50.940;3.998;2023-07-08T01:46:29;11.73;;;5.23;;
48945;SDS011;34999;50.940;3.998;2023-07-08T01:48:58;9.07;;;5.87;;
48945;SDS011;34999;50.940;3.998;2023-07-08T01:51:28;8.00;;;5.97;;
48945;SDS011;34999;50.940;3.998;2023-07-08T01:53:56;7.30;;;5.80;;
48945;SDS011;34999;50.940;3.998;2023-07-08T01:56:26;6.53;;;5.90;;
48945;SDS011;34999;50.940;3.998;2023-07-08T01:58:54;6.33;;;5.83;;
48945;SDS011;34999;50.940;3.998;2023-07-08T02:01:23;6.30;;;5.70;;
48945;SDS011;34999;50.940;3.998;2023-07-08T02:03:51;7.87;;;6.13;;
48945;SDS011;34999;50.940;3.998;2023-07-08T02:06:19;8.23;;;6.00;;
48945;SDS011;34999;50.940;3.998;2023-07-08T02:08:47;7.73;;;6.60;;
48945;SDS011;34999;50.940;3.998;2023-07-08T02:11:19;9.27;;;6.27;;
48945;SDS011;34999;50.940;3.998;2023-07-08T02:13:49;7.83;;;6.23;;
48945;SDS011;34999;50.940;3.998;2023-07-08T02:16:18;6.67;;;5.97;;
48945;SDS011;34999;50.940;3.998;2023-07-08T02:18:46;7.77;;;5.97;;
48945;SDS011;34999;50.940;3.998;2023-07-08T02:21:14;7.50;;;6.00;;
48945;SDS011;34999;50.940;3.998;2023-07-08T02:23:45;6.87;;;6.17;;
48945;SDS011;34999;50.940;3.998;2023-07-08T02:26:17;8.30;;;6.27;;
48945;SDS011;34999;50.940;3.998;2023-07-08T02:28:45;6.70;;;5.77;;
48945;SDS011;34999;50.940;3.998;2023-07-08T02:31:14;7.13;;;6.00;;
48945;SDS011;34999;50.940;3.998;2023-07-08T02:33:43;6.47;;;5.87;;
48945;SDS011;34999;50.940;3.998;2023-07-08T02:36:11;6.93;;;5.93;;
48945;SDS011;34999;50.940;3.998;2023-07-08T02:38:39;7.17;;;5.93;;
48945;SDS011;34999;50.940;3.998;2023-07-08T02:41:08;7.87;;;5.97;;
48945;SDS011;34999;50.940;3.998;2023-07-08T02:43:37;7.53;;;5.90;;
48945;SDS011;34999;50.940;3.998;2023-07-08T02:46:05;7.10;;;6.10;;
48945;SDS011;34999;50.940;3.998;2023-07-08T02:48:36;8.97;;;6.13;;
48945;SDS011;34999;50.940;3.998;2023-07-08T02:51:04;8.33;;;6.20;;
48945;SDS011;34999;50.940;3.998;2023-07-08T02:53:35;9.07;;;6.90;;
48945;SDS011;34999;50.940;3.998;2023-07-08T02:56:03;7.77;;;5.90;;
48945;SDS011;34999;50.940;3.998;2023-07-08T02:58:31;13.80;;;6.43;;
48945;SDS011;34999;50.940;3.998;2023-07-08T03:01:00;9.07;;;6.33;;
48945;SDS011;34999;50.940;3.998;2023-07-08T03:03:30;9.00;;;6.03;;
48945;SDS011;34999;50.940;3.998;2023-07-08T03:06:00;6.97;;;6.27;;
48945;SDS011;34999;50.940;3.998;2023-07-08T03:08:29;6.77;;;6.07;;
48945;SDS011;34999;50.940;3.998;2023-07-08T03:10:58;8.03;;;6.07;;
48945;SDS011;34999;50.940;3.998;2023-07-08T03:13:29;7.07;;;5.97;;
48945;SDS011;34999;50.940;3.998;2023-07-08T03:15:59;7.60;;;6.40;;
48945;SDS011;34999;50.940;3.998;2023-07-08T03:18:28;7.10;;;6.40;;
48945;SDS011;34999;50.940;3.998;2023-07-08T03:20:57;8.53;;;6.20;;
48945;SDS011;34999;50.940;3.998;2023-07-08T03:23:27;9.53;;;6.80;;
48945;SDS011;34999;50.940;3.998;2023-07-08T03:25:55;8.70;;;6.50;;
48945;SDS011;34999;50.940;3.998;2023-07-08T03:28:24;6.67;;;5.97;;
48945;SDS011;34999;50.940;3.998;2023-07-08T03:30:52;8.47;;;6.33;;
48945;SDS011;34999;50.940;3.998;2023-07-08T03:33:20;9.83;;;6.43;;
48945;SDS011;34999;50.940;3.998;2023-07-08T03:35:49;7.20;;;6.37;;
48945;SDS011;34999;50.940;3.998;2023-07-08T03:38:17;9.10;;;6.47;;
48945;SDS011;34999;50.940;3.998;2023-07-08T03:40:46;8.63;;;6.20;;
48945;SDS011;34999;50.940;3.998;2023-07-08T03:43:15;7.73;;;6.30;;
48945;SDS011;34999;50.940;3.998;2023-07-08T03:45:43;8.53;;;6.30;;
48945;SDS011;34999;50.940;3.998;2023-07-08T03:48:12;8.50;;;6.50;;
48945;SDS011;34999;50.940;3.998;2023-07-08T03:50:40;6.93;;;5.83;;
48945;SDS011;34999;50.940;3.998;2023-07-08T03:53:09;9.77;;;6.07;;
48945;SDS011;34999;50.940;3.998;2023-07-08T03:55:37;6.77;;;5.90;;
48945;SDS011;34999;50.940;3.998;2023-07-08T03:58:07;8.93;;;6.53;;
48945;SDS011;34999;50.940;3.998;2023-07-08T04:00:35;6.70;;;6.00;;
48945;SDS011;34999;50.940;3.998;2023-07-08T04:03:03;7.70;;;5.93;;
48945;SDS011;34999;50.940;3.998;2023-07-08T04:05:32;7.57;;;6.23;;
48945;SDS011;34999;50.940;3.998;2023-07-08T04:08:00;7.63;;;6.37;;
48945;SDS011;34999;50.940;3.998;2023-07-08T04:10:28;6.73;;;6.03;;
48945;SDS011;34999;50.940;3.998;2023-07-08T04:12:57;9.27;;;6.20;;
48945;SDS011;34999;50.940;3.998;2023-07-08T04:15:26;7.20;;;5.87;;
48945;SDS011;34999;50.940;3.998;2023-07-08T04:17:55;10.73;;;6.40;;
48945;SDS011;34999;50.940;3.998;2023-07-08T04:20:23;8.67;;;5.93;;
48945;SDS011;34999;50.940;3.998;2023-07-08T04:22:52;7.40;;;6.47;;
48945;SDS011;34999;50.940;3.998;2023-07-08T04:25:20;11.27;;;6.60;;
48945;SDS011;34999;50.940;3.998;2023-07-08T04:27:55;8.03;;;6.33;;
48945;SDS011;34999;50.940;3.998;2023-07-08T04:30:25;15.03;;;6.40;;
48945;SDS011;34999;50.940;3.998;2023-07-08T04:32:54;11.90;;;6.40;;
48945;SDS011;34999;50.940;3.998;2023-07-08T04:35:23;11.23;;;6.67;;
48945;SDS011;34999;50.940;3.998;2023-07-08T04:37:51;9.07;;;6.53;;
48945;SDS011;34999;50.940;3.998;2023-07-08T04:40:21;10.07;;;6.07;;
48945;SDS011;34999;50.940;3.998;2023-07-08T04:42:49;8.97;;;6.90;;
48945;SDS011;34999;50.940;3.998;2023-07-08T04:45:18;8.13;;;7.00;;
48945;SDS011;34999;50.940;3.998;2023-07-08T04:47:48;7.17;;;6.57;;
48945;SDS011;34999;50.940;3.998;2023-07-08T04:50:19;9.10;;;6.23;;
48945;SDS011;34999;50.940;3.998;2023-07-08T04:52:48;10.20;;;6.93;;
48945;SDS011;34999;50.940;3.998;2023-07-08T04:55:16;9.90;;;7.00;;
48945;SDS011;34999;50.940;3.998;2023-07-08T04:57:45;8.47;;;6.67;;
48945;SDS011;34999;50.940;3.998;2023-07-08T05:00:15;7.40;;;6.60;;
48945;SDS011;34999;50.940;3.998;2023-07-08T05:02:45;8.13;;;6.50;;
48945;SDS011;34999;50.940;3.998;2023-07-08T05:05:15;12.20;;;6.77;;
48945;SDS011;34999;50.940;3.998;2023-07-08T05:07:44;8.10;;;6.67;;
48945;SDS011;34999;50.940;3.998;2023-07-08T05:10:12;7.03;;;6.37;;
48945;SDS011;34999;50.940;3.998;2023-07-08T05:12:40;8.30;;;5.87;;
48945;SDS011;34999;50.940;3.998;2023-07-08T05:15:09;7.03;;;6.37;;
48945;SDS011;34999;50.940;3.998;2023-07-08T05:17:38;12.57;;;6.43;;
48945;SDS011;34999;50.940;3.998;2023-07-08T05:20:10;6.20;;;5.63;;
48945;SDS011;34999;50.940;3.998;2023-07-08T05:22:40;10.10;;;6.60;;
48945;SDS011;34999;50.940;3.998;2023-07-08T05:25:12;7.80;;;6.17;;
48945;SDS011;34999;50.940;3.998;2023-07-08T05:30:28;6.37;;;5.77;;
48945;SDS011;34999;50.940;3.998;2023-07-08T05:32:57;7.10;;;6.40;;
48945;SDS011;34999;50.940;3.998;2023-07-08T05:35:26;8.20;;;6.43;;
48945;SDS011;34999;50.940;3.998;2023-07-08T05:37:55;7.03;;;6.00;;
48945;SDS011;34999;50.940;3.998;2023-07-08T05:40:23;10.30;;;6.90;;
48945;SDS011;34999;50.940;3.998;2023-07-08T05:42:51;10.10;;;5.67;;
48945;SDS011;34999;50.940;3.998;2023-07-08T05:45:20;7.43;;;6.20;;
48945;SDS011;34999;50.940;3.998;2023-07-08T05:47:48;7.00;;;6.10;;
48945;SDS011;34999;50.940;3.998;2023-07-08T05:50:16;8.03;;;5.40;;
48945;SDS011;34999;50.940;3.998;2023-07-08T05:52:46;9.17;;;6.17;;
48945;SDS011;34999;50.940;3.998;2023-07-08T05:55:14;8.43;;;6.67;;
48945;SDS011;34999;50.940;3.998;2023-07-08T05:57:43;6.40;;;5.73;;
48945;SDS011;34999;50.940;3.998;2023-07-08T06:00:11;8.13;;;6.23;;
48945;SDS011;34999;50.940;3.998;2023-07-08T06:02:55;6.67;;;5.80;;
48945;SDS011;34999;50.940;3.998;2023-07-08T06:05:24;8.77;;;6.70;;
48945;SDS011;34999;50.940;3.998;2023-07-08T06:07:53;8.03;;;6.60;;
48945;SDS011;34999;50.940;3.998;2023-07-08T06:10:21;6.77;;;5.87;;
48945;SDS011;34999;50.940;3.998;2023-07-08T06:12:50;8.20;;;6.07;;
48945;SDS011;34999;50.940;3.998;2023-07-08T06:15:18;6.87;;;6.17;;
48945;SDS011;34999;50.940;3.998;2023-07-08T06:17:47;7.53;;;6.30;;
48945;SDS011;34999;50.940;3.998;2023-07-08T06:20:15;5.80;;;5.17;;
48945;SDS011;34999;50.940;3.998;2023-07-08T06:22:45;9.33;;;6.17;;
48945;SDS011;34999;50.940;3.998;2023-07-08T06:25:16;7.30;;;5.87;;
48945;SDS011;34999;50.940;3.998;2023-07-08T06:27:46;7.83;;;5.80;;
48945;SDS011;34999;50.940;3.998;2023-07-08T06:30:14;9.97;;;6.10;;
48945;SDS011;34999;50.940;3.998;2023-07-08T06:32:43;8.27;;;6.23;;
48945;SDS011;34999;50.940;3.998;2023-07-08T06:35:11;7.67;;;6.00;;
48945;SDS011;34999;50.940;3.998;2023-07-08T06:37:40;7.40;;;5.83;;
48945;SDS011;34999;50.940;3.998;2023-07-08T06:40:09;9.30;;;5.97;;
48945;SDS011;34999;50.940;3.998;2023-07-08T06:42:39;10.00;;;5.87;;
48945;SDS011;34999;50.940;3.998;2023-07-08T06:45:08;11.73;;;6.47;;
48945;SDS011;34999;50.940;3.998;2023-07-08T06:47:37;24.30;;;6.93;;
48945;SDS011;34999;50.940;3.998;2023-07-08T06:50:06;13.80;;;6.90;;
48945;SDS011;34999;50.940;3.998;2023-07-08T06:52:35;8.80;;;6.13;;
48945;SDS011;34999;50.940;3.998;2023-07-08T06:55:04;8.43;;;5.20;;
48945;SDS011;34999;50.940;3.998;2023-07-08T06:57:34;8.83;;;5.87;;
48945;SDS011;34999;50.940;3.998;2023-07-08T07:00:06;6.10;;;5.50;;
48945;SDS011;34999;50.940;3.998;2023-07-08T07:02:36;7.30;;;5.47;;
48945;SDS011;34999;50.940;3.998;2023-07-08T07:05:05;8.43;;;5.50;;
48945;SDS011;34999;50.940;3.998;2023-07-08T07:07:34;5.77;;;5.07;;
48945;SDS011;34999;50.940;3.998;2023-07-08T07:10:02;8.77;;;5.50;;
48945;SDS011;34999;50.940;3.998;2023-07-08T07:12:32;6.10;;;5.23;;
48945;SDS011;34999;50.940;3.998;2023-07-08T07:15:00;8.13;;;4.87;;
48945;SDS011;34999;50.940;3.998;2023-07-08T07:17:31;6.17;;;5.17;;
48945;SDS011;34999;50.940;3.998;2023-07-08T07:20:00;7.03;;;5.30;;
48945;SDS011;34999;50.940;3.998;2023-07-08T07:22:29;9.20;;;5.20;;
48945;SDS011;34999;50.940;3.998;2023-07-08T07:24:58;7.23;;;5.43;;
48945;SDS011;34999;50.940;3.998;2023-07-08T07:27:26;9.60;;;5.80;;
48945;SDS011;34999;50.940;3.998;2023-07-08T07:29:55;7.27;;;5.63;;
48945;SDS011;34999;50.940;3.998;2023-07-08T07:32:25;6.67;;;5.20;;
48945;SDS011;34999;50.940;3.998;2023-07-08T07:34:57;7.10;;;5.33;;
48945;SDS011;34999;50.940;3.998;2023-07-08T07:37:26;10.27;;;5.77;;
48945;SDS011;34999;50.940;3.998;2023-07-08T07:39:54;6.97;;;5.70;;
48945;SDS011;34999;50.940;3.998;2023-07-08T07:42:22;6.67;;;5.43;;
48945;SDS011;34999;50.940;3.998;2023-07-08T07:44:51;6.33;;;5.30;;
48945;SDS011;34999;50.940;3.998;2023-07-08T07:47:19;10.00;;;5.47;;
48945;SDS011;34999;50.940;3.998;2023-07-08T07:49:47;7.90;;;5.30;;
48945;SDS011;34999;50.940;3.998;2023-07-08T07:52:17;9.60;;;6.25;;
48945;SDS011;34999;50.940;3.998;2023-07-08T07:54:50;8.73;;;5.80;;
48945;SDS011;34999;50.940;3.998;2023-07-08T07:57:20;10.10;;;5.77;;
48945;SDS011;34999;50.940;3.998;2023-07-08T07:59:48;44.97;;;9.50;;
48945;SDS011;34999;50.940;3.998;2023-07-08T08:02:17;13.30;;;5.80;;
48945;SDS011;34999;50.940;3.998;2023-07-08T08:04:46;8.68;;;5.50;;
48945;SDS011;34999;50.940;3.998;2023-07-08T08:07:14;8.73;;;5.05;;
48945;SDS011;34999;50.940;3.998;2023-07-08T08:09:44;9.00;;;5.90;;
48945;SDS011;34999;50.940;3.998;2023-07-08T08:12:12;8.82;;;5.70;;
48945;SDS011;34999;50.940;3.998;2023-07-08T08:14:40;11.25;;;5.25;;
48945;SDS011;34999;50.940;3.998;2023-07-08T08:17:08;7.28;;;5.68;;
48945;SDS011;34999;50.940;3.998;2023-07-08T08:19:37;6.88;;;5.25;;
48945;SDS011;34999;50.940;3.998;2023-07-08T08:22:05;6.13;;;5.50;;
48945;SDS011;34999;50.940;3.998;2023-07-08T08:24:33;6.13;;;5.30;;
48945;SDS011;34999;50.940;3.998;2023-07-08T08:27:03;8.77;;;5.65;;
48945;SDS011;34999;50.940;3.998;2023-07-08T08:29:32;6.95;;;5.22;;
48945;SDS011;34999;50.940;3.998;2023-07-08T08:35:06;82.00;;;8.15;;
48945;SDS011;34999;50.940;3.998;2023-07-08T08:37:34;10.43;;;5.70;;
48945;SDS011;34999;50.940;3.998;2023-07-08T08:40:03;7.13;;;5.93;;
48945;SDS011;34999;50.940;3.998;2023-07-08T08:46:16;9.75;;;5.88;;
48945;SDS011;34999;50.940;3.998;2023-07-08T08:48:54;6.28;;;5.43;;
48945;SDS011;34999;50.940;3.998;2023-07-08T08:51:26;7.88;;;5.72;;
48945;SDS011;34999;50.940;3.998;2023-07-08T08:53:57;5.78;;;5.28;;
48945;SDS011;34999;50.940;3.998;2023-07-08T08:56:27;8.05;;;5.75;;
48945;SDS011;34999;50.940;3.998;2023-07-08T08:58:58;6.97;;;5.32;;
48945;SDS011;34999;50.940;3.998;2023-07-08T09:01:32;5.68;;;4.95;;
48945;SDS011;34999;50.940;3.998;2023-07-08T09:04:03;6.55;;;5.18;;
48945;SDS011;34999;50.940;3.998;2023-07-08T09:06:38;5.72;;;5.25;;
48945;SDS011;34999;50.940;3.998;2023-07-08T09:12:34;6.03;;;5.53;;
48945;SDS011;34999;50.940;3.998;2023-07-08T09:15:07;6.47;;;5.18;;
48945;SDS011;34999;50.940;3.998;2023-07-08T09:17:42;6.97;;;5.80;;
48945;SDS011;34999;50.940;3.998;2023-07-08T09:20:17;5.97;;;5.38;;
48945;SDS011;34999;50.940;3.998;2023-07-08T09:22:51;8.57;;;5.60;;
48945;SDS011;34999;50.940;3.998;2023-07-08T09:25:26;20.98;;;6.00;;
48945;SDS011;34999;50.940;3.998;2023-07-08T09:27:58;7.28;;;6.00;;
48945;SDS011;34999;50.940;3.998;2023-07-08T09:30:27;5.68;;;5.18;;
48945;SDS011;34999;50.940;3.998;2023-07-08T09:32:58;6.70;;;5.57;;
48945;SDS011;34999;50.940;3.998;2023-07-08T09:35:37;6.60;;;5.60;;
48945;SDS011;34999;50.940;3.998;2023-07-08T09:38:07;5.43;;;4.93;;
48945;SDS011;34999;50.940;3.998;2023-07-08T09:40:37;18.15;;;6.40;;
48945;SDS011;34999;50.940;3.998;2023-07-08T09:43:11;6.25;;;5.65;;
48945;SDS011;34999;50.940;3.998;2023-07-08T09:45:49;6.63;;;5.65;;
48945;SDS011;34999;50.940;3.998;2023-07-08T09:48:20;7.85;;;5.55;;
48945;SDS011;34999;50.940;3.998;2023-07-08T09:50:52;10.70;;;5.88;;
48945;SDS011;34999;50.940;3.998;2023-07-08T09:53:22;7.18;;;5.70;;
48945;SDS011;34999;50.940;3.998;2023-07-08T09:55:51;8.07;;;5.85;;
48945;SDS011;34999;50.940;3.998;2023-07-08T09:58:21;6.47;;;5.70;;
48945;SDS011;34999;50.940;3.998;2023-07-08T10:06:48;5.72;;;5.22;;
48945;SDS011;34999;50.940;3.998;2023-07-08T10:09:20;7.78;;;5.10;;
48945;SDS011;34999;50.940;3.998;2023-07-08T10:11:52;5.60;;;4.97;;
48945;SDS011;34999;50.940;3.998;2023-07-08T10:14:25;6.05;;;4.88;;
48945;SDS011;34999;50.940;3.998;2023-07-08T10:16:56;7.25;;;4.57;;
48945;SDS011;34999;50.940;3.998;2023-07-08T10:19:25;4.60;;;4.20;;
48945;SDS011;34999;50.940;3.998;2023-07-08T10:22:02;5.45;;;4.95;;
48945;SDS011;34999;50.940;3.998;2023-07-08T10:24:44;12.15;;;4.20;;
48945;SDS011;34999;50.940;3.998;2023-07-08T10:27:21;6.85;;;4.63;;
48945;SDS011;34999;50.940;3.998;2023-07-08T10:29:56;4.70;;;4.30;;
48945;SDS011;34999;50.940;3.998;2023-07-08T10:32:39;9.73;;;4.63;;
48945;SDS011;34999;50.940;3.998;2023-07-08T10:35:20;8.90;;;4.60;;
48945;SDS011;34999;50.940;3.998;2023-07-08T10:37:58;6.18;;;4.82;;
48945;SDS011;34999;50.940;3.998;2023-07-08T10:40:41;5.35;;;4.63;;
48945;SDS011;34999;50.940;3.998;2023-07-08T10:43:20;5.97;;;4.88;;
48945;SDS011;34999;50.940;3.998;2023-07-08T10:46:00;7.53;;;4.85;;
48945;SDS011;34999;50.940;3.998;2023-07-08T10:48:51;9.45;;;5.10;;
48945;SDS011;34999;50.940;3.998;2023-07-08T10:51:31;5.43;;;4.93;;
48945;SDS011;34999;50.940;3.998;2023-07-08T10:54:16;6.97;;;4.90;;
48945;SDS011;34999;50.940;3.998;2023-07-08T10:57:13;7.30;;;5.30;;
48945;SDS011;34999;50.940;3.998;2023-07-08T10:59:52;7.72;;;5.10;;
48945;SDS011;34999;50.940;3.998;2023-07-08T11:02:38;5.78;;;5.22;;
48945;SDS011;34999;50.940;3.998;2023-07-08T11:05:28;8.15;;;5.90;;
48945;SDS011;34999;50.940;3.998;2023-07-08T11:08:03;6.03;;;5.15;;
48945;SDS011;34999;50.940;3.998;2023-07-08T11:10:40;6.20;;;5.60;;
48945;SDS011;34999;50.940;3.998;2023-07-08T11:13:25;8.10;;;5.85;;
48945;SDS011;34999;50.940;3.998;2023-07-08T11:15:57;6.00;;;5.20;;
48945;SDS011;34999;50.940;3.998;2023-07-08T11:18:30;6.88;;;5.13;;
48945;SDS011;34999;50.940;3.998;2023-07-08T11:21:08;8.20;;;5.78;;
48945;SDS011;34999;50.940;3.998;2023-07-08T11:23:41;6.03;;;5.40;;
48945;SDS011;34999;50.940;3.998;2023-07-08T11:26:17;7.40;;;5.63;;
48945;SDS011;34999;50.940;3.998;2023-07-08T11:28:49;6.07;;;5.47;;
48945;SDS011;34999;50.940;3.998;2023-07-08T11:31:20;6.95;;;6.15;;
48945;SDS011;34999;50.940;3.998;2023-07-08T11:33:51;8.27;;;5.80;;
48945;SDS011;34999;50.940;3.998;2023-07-08T11:36:21;6.43;;;5.80;;
48945;SDS011;34999;50.940;3.998;2023-07-08T11:38:52;7.78;;;6.35;;
48945;SDS011;34999;50.940;3.998;2023-07-08T11:41:23;6.38;;;5.78;;
48945;SDS011;34999;50.940;3.998;2023-07-08T11:43:56;8.40;;;5.68;;
48945;SDS011;34999;50.940;3.998;2023-07-08T11:46:26;10.93;;;6.20;;
48945;SDS011;34999;50.940;3.998;2023-07-08T11:48:57;7.22;;;5.53;;
48945;SDS011;34999;50.940;3.998;2023-07-08T11:51:30;6.20;;;5.60;;
48945;SDS011;34999;50.940;3.998;2023-07-08T11:54:10;7.43;;;6.03;;
48945;SDS011;34999;50.940;3.998;2023-07-08T11:57:00;7.07;;;5.72;;
48945;SDS011;34999;50.940;3.998;2023-07-08T11:59:32;7.03;;;5.30;;
48945;SDS011;34999;50.940;3.998;2023-07-08T12:02:10;10.43;;;6.18;;
48945;SDS011;34999;50.940;3.998;2023-07-08T12:04:54;8.57;;;6.05;;
48945;SDS011;34999;50.940;3.998;2023-07-08T12:07:31;9.38;;;5.35;;
48945;SDS011;34999;50.940;3.998;2023-07-08T12:10:04;12.68;;;6.28;;
48945;SDS011;34999;50.940;3.998;2023-07-08T12:12:42;9.90;;;6.05;;
48945;SDS011;34999;50.940;3.998;2023-07-08T12:15:12;7.43;;;6.00;;
48945;SDS011;34999;50.940;3.998;2023-07-08T12:17:44;5.07;;;4.68;;
48945;SDS011;34999;50.940;3.998;2023-07-08T12:20:16;7.75;;;5.05;;
48945;SDS011;34999;50.940;3.998;2023-07-08T12:22:48;10.88;;;5.40;;
48945;SDS011;34999;50.940;3.998;2023-07-08T12:25:18;5.82;;;4.57;;
48945;SDS011;34999;50.940;3.998;2023-07-08T12:27:55;6.28;;;5.05;;
48945;SDS011;34999;50.940;3.998;2023-07-08T12:30:25;7.50;;;4.40;;
48945;SDS011;34999;50.940;3.998;2023-07-08T12:32:56;6.60;;;4.88;;
48945;SDS011;34999;50.940;3.998;2023-07-08T12:35:27;5.72;;;4.65;;
48945;SDS011;34999;50.940;3.998;2023-07-08T12:37:58;9.70;;;5.45;;
48945;SDS011;34999;50.940;3.998;2023-07-08T12:40:27;6.13;;;4.95;;
48945;SDS011;34999;50.940;3.998;2023-07-08T12:42:59;5.65;;;4.53;;
48945;SDS011;34999;50.940;3.998;2023-07-08T12:45:29;7.85;;;4.85;;
48945;SDS011;34999;50.940;3.998;2023-07-08T12:47:59;5.40;;;4.90;;
48945;SDS011;34999;50.940;3.998;2023-07-08T12:50:30;5.40;;;4.70;;
48945;SDS011;34999;50.940;3.998;2023-07-08T12:52:59;8.30;;;4.85;;
48945;SDS011;34999;50.940;3.998;2023-07-08T12:55:31;8.80;;;4.45;;
48945;SDS011;34999;50.940;3.998;2023-07-08T12:58:02;5.47;;;4.97;;
48945;SDS011;34999;50.940;3.998;2023-07-08T13:00:32;8.38;;;5.50;;
48945;SDS011;34999;50.940;3.998;2023-07-08T13:03:07;9.73;;;5.43;;
48945;SDS011;34999;50.940;3.998;2023-07-08T13:05:40;6.55;;;4.80;;
48945;SDS011;34999;50.940;3.998;2023-07-08T13:08:10;6.38;;;5.20;;
48945;SDS011;34999;50.940;3.998;2023-07-08T13:10:40;6.43;;;5.22;;
48945;SDS011;34999;50.940;3.998;2023-07-08T13:13:12;5.30;;;4.80;;
48945;SDS011;34999;50.940;3.998;2023-07-08T13:15:48;5.28;;;4.80;;
48945;SDS011;34999;50.940;3.998;2023-07-08T13:18:17;6.60;;;5.53;;
48945;SDS011;34999;50.940;3.998;2023-07-08T13:20:48;6.80;;;4.35;;
48945;SDS011;34999;50.940;3.998;2023-07-08T13:23:18;6.63;;;5.38;;
48945;SDS011;34999;50.940;3.998;2023-07-08T13:25:48;4.82;;;4.43;;
48945;SDS011;34999;50.940;3.998;2023-07-08T13:28:22;10.07;;;5.05;;
48945;SDS011;34999;50.940;3.998;2023-07-08T13:30:52;6.75;;;4.88;;
48945;SDS011;34999;50.940;3.998;2023-07-08T13:33:22;6.72;;;5.00;;
48945;SDS011;34999;50.940;3.998;2023-07-08T13:35:51;9.02;;;5.28;;
48945;SDS011;34999;50.940;3.998;2023-07-08T13:38:22;11.63;;;5.07;;
48945;SDS011;34999;50.940;3.998;2023-07-08T13:40:53;8.05;;;5.20;;
48945;SDS011;34999;50.940;3.998;2023-07-08T13:43:24;7.38;;;4.97;;
48945;SDS011;34999;50.940;3.998;2023-07-08T13:45:55;10.10;;;5.10;;
48945;SDS011;34999;50.940;3.998;2023-07-08T13:48:25;9.05;;;5.38;;
48945;SDS011;34999;50.940;3.998;2023-07-08T13:50:56;7.93;;;5.30;;
48945;SDS011;34999;50.940;3.998;2023-07-08T13:53:27;6.78;;;4.57;;
48945;SDS011;34999;50.940;3.998;2023-07-08T13:56:11;6.55;;;5.45;;
48945;SDS011;34999;50.940;3.998;2023-07-08T13:58:43;9.45;;;5.32;;
48945;SDS011;34999;50.940;3.998;2023-07-08T14:01:14;6.47;;;5.43;;
48945;SDS011;34999;50.940;3.998;2023-07-08T14:03:48;7.43;;;5.35;;
48945;SDS011;34999;50.940;3.998;2023-07-08T14:06:18;6.65;;;5.18;;
48945;SDS011;34999;50.940;3.998;2023-07-08T14:08:50;8.50;;;5.35;;
48945;SDS011;34999;50.940;3.998;2023-07-08T14:11:21;7.13;;;5.78;;
48945;SDS011;34999;50.940;3.998;2023-07-08T14:13:51;6.60;;;4.90;;
48945;SDS011;34999;50.940;3.998;2023-07-08T14:16:22;6.03;;;5.00;;
48945;SDS011;34999;50.940;3.998;2023-07-08T14:18:53;5.50;;;5.00;;
48945;SDS011;34999;50.940;3.998;2023-07-08T14:21:22;6.68;;;5.25;;
48945;SDS011;34999;50.940;3.998;2023-07-08T14:23:51;8.93;;;4.97;;
48945;SDS011;34999;50.940;3.998;2023-07-08T14:26:20;7.50;;;5.45;;
48945;SDS011;34999;50.940;3.998;2023-07-08T14:28:48;5.85;;;5.18;;
48945;SDS011;34999;50.940;3.998;2023-07-08T14:31:19;7.03;;;4.97;;
48945;SDS011;34999;50.940;3.998;2023-07-08T14:33:49;13.30;;;4.72;;
48945;SDS011;34999;50.940;3.998;2023-07-08T14:36:19;10.82;;;5.55;;
48945;SDS011;34999;50.940;3.998;2023-07-08T14:38:48;9.27;;;5.40;;
48945;SDS011;34999;50.940;3.998;2023-07-08T14:41:16;8.98;;;5.10;;
48945;SDS011;34999;50.940;3.998;2023-07-08T14:43:44;6.93;;;5.03;;
48945;SDS011;34999;50.940;3.998;2023-07-08T14:46:14;6.88;;;4.95;;
48945;SDS011;34999;50.940;3.998;2023-07-08T14:48:43;8.07;;;5.15;;
48945;SDS011;34999;50.940;3.998;2023-07-08T14:51:11;9.73;;;5.07;;
48945;SDS011;34999;50.940;3.998;2023-07-08T14:53:39;6.82;;;5.45;;
48945;SDS011;34999;50.940;3.998;2023-07-08T14:56:11;8.20;;;5.22;;
48945;SDS011;34999;50.940;3.998;2023-07-08T14:58:43;6.57;;;5.25;;
48945;SDS011;34999;50.940;3.998;2023-07-08T15:01:15;7.70;;;5.45;;
48945;SDS011;34999;50.940;3.998;2023-07-08T15:03:46;5.28;;;4.78;;
48945;SDS011;34999;50.940;3.998;2023-07-08T15:06:15;7.22;;;5.13;;
48945;SDS011;34999;50.940;3.998;2023-07-08T15:08:44;5.60;;;4.80;;
48945;SDS011;34999;50.940;3.998;2023-07-08T15:11:12;6.18;;;4.90;;
48945;SDS011;34999;50.940;3.998;2023-07-08T15:13:41;13.55;;;5.20;;
48945;SDS011;34999;50.940;3.998;2023-07-08T15:16:12;5.80;;;5.10;;
48945;SDS011;34999;50.940;3.998;2023-07-08T15:18:44;7.10;;;4.95;;
48945;SDS011;34999;50.940;3.998;2023-07-08T15:21:13;9.05;;;5.47;;
48945;SDS011;34999;50.940;3.998;2023-07-08T15:23:41;6.43;;;4.90;;
48945;SDS011;34999;50.940;3.998;2023-07-08T15:26:10;8.30;;;4.95;;